createdAt,value
2017-05-18T00:00:28.738Z,55.96
2017-05-18T00:01:30.578Z,55.47
2017-05-18T00:02:32.401Z,55.47
2017-05-18T00:03:34.220Z,55.47
2017-05-18T00:04:36.057Z,55.67
2017-05-18T00:05:37.880Z,56.24
2017-05-18T00:06:39.923Z,56.24
2017-05-18T00:07:41.764Z,55.96
2017-05-18T00:08:43.612Z,55.38
2017-05-18T00:09:45.457Z,55.47
2017-05-18T00:10:47.304Z,55.29
2017-05-18T00:11:49.218Z,55.38
2017-05-18T00:12:51.063Z,55.29
2017-05-18T00:13:52.911Z,55.19
2017-05-18T00:14:54.743Z,55.38
2017-05-18T00:15:56.589Z,55.47
2017-05-18T00:16:58.886Z,55.47
2017-05-18T00:18:00.713Z,55.67
2017-05-18T00:19:02.536Z,55.57
2017-05-18T00:20:04.387Z,55.86
2017-05-18T00:21:06.226Z,55.86
2017-05-18T00:22:08.045Z,56.44
2017-05-18T00:23:09.859Z,56.15
2017-05-18T00:24:11.697Z,56.34
2017-05-18T00:25:13.516Z,56.22
2017-05-18T00:26:15.335Z,55.93
2017-05-18T00:27:17.381Z,56.31
2017-05-18T00:28:19.225Z,56.22
2017-05-18T00:29:21.071Z,56.12
2017-05-18T00:30:22.912Z,56.41
2017-05-18T00:31:24.751Z,56.12
2017-05-18T00:32:26.617Z,56.12
2017-05-18T00:33:28.461Z,56.98
2017-05-18T00:34:30.287Z,56.89
2017-05-18T00:35:32.125Z,56.79
2017-05-18T00:36:33.974Z,56.89
2017-05-18T00:37:36.213Z,57.18
2017-05-18T00:38:38.060Z,57.28
2017-05-18T00:39:39.903Z,57.46
2017-05-18T00:40:41.721Z,56.98
2017-05-18T00:41:43.566Z,56.98
2017-05-18T00:42:45.677Z,56.70
2017-05-18T00:43:47.496Z,56.89
2017-05-18T00:44:49.337Z,56.70
2017-05-18T00:45:51.154Z,56.89
2017-05-18T00:46:53.000Z,57.18
2017-05-18T00:47:54.840Z,57.28
2017-05-18T00:48:56.664Z,56.98
2017-05-18T00:49:58.501Z,57.15
2017-05-18T00:51:00.326Z,57.08
2017-05-18T00:52:02.146Z,57.28
2017-05-18T00:53:03.984Z,57.37
2017-05-18T00:54:05.835Z,56.89
2017-05-18T00:55:07.674Z,56.60
2017-05-18T00:56:09.518Z,56.89
2017-05-18T00:57:11.362Z,56.79
2017-05-18T00:58:13.272Z,56.79
2017-05-18T00:59:15.092Z,56.22
2017-05-18T01:00:16.906Z,56.19
2017-05-18T01:01:18.729Z,56.41
2017-05-18T01:02:20.567Z,56.22
2017-05-18T01:03:22.515Z,56.41
2017-05-18T01:04:24.362Z,56.60
2017-05-18T01:05:26.205Z,56.86
2017-05-18T01:06:28.026Z,56.67
2017-05-18T01:07:29.870Z,56.96
2017-05-18T01:08:32.085Z,56.86
2017-05-18T01:09:33.931Z,56.86
2017-05-18T01:10:35.749Z,56.76
2017-05-18T01:11:37.592Z,56.76
2017-05-18T01:12:39.440Z,56.67
2017-05-18T01:13:41.287Z,56.76
2017-05-18T01:14:43.134Z,56.76
2017-05-18T01:15:44.978Z,56.86
2017-05-18T01:16:46.801Z,56.38
2017-05-18T01:17:48.639Z,56.48
2017-05-18T01:18:50.486Z,57.06
2017-05-18T01:19:52.328Z,56.86
2017-05-18T01:20:54.166Z,56.67
2017-05-18T01:21:55.987Z,56.86
2017-05-18T01:22:57.835Z,56.86
2017-05-18T01:23:59.976Z,56.76
2017-05-18T01:25:01.824Z,57.12
2017-05-18T01:26:03.662Z,56.57
2017-05-18T01:27:05.514Z,56.96
2017-05-18T01:28:07.365Z,56.76
2017-05-18T01:29:09.228Z,56.67
2017-05-18T01:30:11.075Z,56.76
2017-05-18T01:31:12.926Z,56.67
2017-05-18T01:32:14.765Z,56.76
2017-05-18T01:33:16.582Z,56.67
2017-05-18T01:34:18.721Z,57.34
2017-05-18T01:35:20.541Z,57.21
2017-05-18T01:36:22.358Z,57.03
2017-05-18T01:37:24.176Z,56.54
2017-05-18T01:38:26.019Z,56.54
2017-05-18T01:39:27.897Z,56.48
2017-05-18T01:40:29.743Z,57.03
2017-05-18T01:41:31.583Z,56.93
2017-05-18T01:42:33.428Z,57.31
2017-05-18T01:43:35.281Z,57.89
2017-05-18T01:44:37.513Z,57.60
2017-05-18T01:45:39.325Z,57.70
2017-05-18T01:46:41.145Z,57.60
2017-05-18T01:47:42.968Z,57.60
2017-05-18T01:48:44.816Z,58.08
2017-05-18T01:49:46.760Z,57.60
2017-05-18T01:50:48.607Z,57.21
2017-05-18T01:51:50.450Z,57.21
2017-05-18T01:52:52.299Z,57.21
2017-05-18T01:53:54.143Z,57.31
2017-05-18T01:54:56.191Z,56.93
2017-05-18T01:55:58.039Z,57.03
2017-05-18T01:56:59.869Z,57.31
2017-05-18T01:58:01.710Z,56.83
2017-05-18T01:59:03.556Z,56.93
2017-05-18T02:00:05.398Z,56.07
2017-05-18T02:01:07.243Z,56.26
2017-05-18T02:02:09.198Z,56.64
2017-05-18T02:03:11.103Z,56.64
2017-05-18T02:04:12.923Z,56.26
2017-05-18T02:05:14.765Z,56.16
2017-05-18T02:06:16.581Z,55.68
2017-05-18T02:07:18.403Z,55.87
2017-05-18T02:08:20.219Z,55.11
2017-05-18T02:09:22.039Z,55.30
2017-05-18T02:10:23.956Z,55.21
2017-05-18T02:11:25.800Z,55.11
2017-05-18T02:12:27.621Z,55.58
2017-05-18T02:13:29.439Z,55.30
2017-05-18T02:14:31.259Z,55.11
2017-05-18T02:15:33.553Z,54.82
2017-05-18T02:16:35.401Z,54.82
2017-05-18T02:17:37.246Z,55.21
2017-05-18T02:18:39.095Z,55.21
2017-05-18T02:19:40.938Z,55.87
2017-05-18T02:20:42.781Z,55.68
2017-05-18T02:21:44.602Z,55.30
2017-05-18T02:22:46.421Z,55.58
2017-05-18T02:23:48.232Z,55.21
2017-05-18T02:24:50.078Z,55.87
2017-05-18T02:25:52.124Z,55.21
2017-05-18T02:26:53.966Z,55.40
2017-05-18T02:27:55.782Z,55.21
2017-05-18T02:28:57.625Z,55.30
2017-05-18T02:29:59.470Z,55.49
2017-05-18T02:31:01.312Z,55.78
2017-05-18T02:32:03.160Z,55.75
2017-05-18T02:33:04.959Z,56.13
2017-05-18T02:34:06.773Z,56.23
2017-05-18T02:35:08.619Z,56.32
2017-05-18T02:36:10.763Z,56.23
2017-05-18T02:37:12.605Z,56.13
2017-05-18T02:38:14.447Z,56.13
2017-05-18T02:39:16.295Z,55.65
2017-05-18T02:40:18.131Z,55.21
2017-05-18T02:41:20.034Z,55.21
2017-05-18T02:42:21.840Z,55.30
2017-05-18T02:43:23.682Z,55.01
2017-05-18T02:44:25.530Z,55.87
2017-05-18T02:45:27.369Z,56.16
2017-05-18T02:46:29.487Z,55.68
2017-05-18T02:47:31.303Z,55.40
2017-05-18T02:48:33.126Z,55.78
2017-05-18T02:49:34.946Z,55.49
2017-05-18T02:50:36.787Z,56.45
2017-05-18T02:51:38.707Z,56.26
2017-05-18T02:52:40.548Z,56.45
2017-05-18T02:53:42.369Z,55.56
2017-05-18T02:54:44.191Z,55.01
2017-05-18T02:55:46.035Z,55.18
2017-05-18T02:56:47.983Z,55.08
2017-05-18T02:57:49.825Z,55.18
2017-05-18T02:58:51.669Z,55.27
2017-05-18T02:59:53.516Z,55.49
2017-05-18T03:00:55.358Z,55.27
2017-05-18T03:01:57.231Z,55.49
2017-05-18T03:02:59.081Z,55.27
2017-05-18T03:04:00.927Z,55.46
2017-05-18T03:05:02.770Z,55.56
2017-05-18T03:06:04.597Z,55.85
2017-05-18T03:07:06.738Z,55.85
2017-05-18T03:08:08.587Z,55.56
2017-05-18T03:09:10.439Z,55.85
2017-05-18T03:10:12.292Z,55.94
2017-05-18T03:11:14.110Z,55.75
2017-05-18T03:12:15.953Z,55.65
2017-05-18T03:13:17.774Z,55.75
2017-05-18T03:14:19.833Z,56.13
2017-05-18T03:15:21.791Z,55.85
2017-05-18T03:16:23.631Z,55.18
2017-05-18T03:17:25.779Z,55.18
2017-05-18T03:18:27.624Z,55.18
2017-05-18T03:19:29.444Z,55.65
2017-05-18T03:20:31.297Z,55.85
2017-05-18T03:21:33.140Z,55.65
2017-05-18T03:22:35.088Z,55.56
2017-05-18T03:23:36.933Z,55.18
2017-05-18T03:24:38.757Z,54.82
2017-05-18T03:25:40.610Z,54.72
2017-05-18T03:26:42.456Z,54.82
2017-05-18T03:27:44.598Z,54.53
2017-05-18T03:28:46.425Z,53.77
2017-05-18T03:29:48.273Z,53.60
2017-05-18T03:30:50.094Z,53.31
2017-05-18T03:31:51.940Z,52.83
2017-05-18T03:32:53.793Z,53.31
2017-05-18T03:33:55.639Z,52.28
2017-05-18T03:34:57.493Z,51.81
2017-05-18T03:35:59.346Z,51.81
2017-05-18T03:37:01.193Z,49.88
2017-05-18T03:38:03.242Z,50.29
2017-05-18T03:39:05.099Z,49.72
2017-05-18T03:40:06.949Z,49.07
2017-05-18T03:41:08.774Z,48.11
2017-05-18T03:42:10.621Z,47.72
2017-05-18T03:43:12.549Z,47.66
2017-05-18T03:44:14.373Z,47.56
2017-05-18T03:45:16.225Z,46.91
2017-05-18T03:46:18.070Z,46.62
2017-05-18T03:47:19.900Z,46.04
2017-05-18T03:48:21.857Z,45.01
2017-05-18T03:49:23.675Z,45.59
2017-05-18T03:50:25.534Z,45.01
2017-05-18T03:51:27.394Z,44.05
2017-05-18T03:52:29.238Z,44.07
2017-05-18T03:53:31.111Z,43.01
2017-05-18T03:54:32.939Z,43.11
2017-05-18T03:55:34.793Z,43.11
2017-05-18T03:56:36.646Z,43.20
2017-05-18T03:57:38.470Z,42.55
2017-05-18T03:58:40.373Z,42.07
2017-05-18T03:59:42.201Z,42.26
2017-05-18T04:00:44.057Z,42.46
2017-05-18T04:01:45.923Z,41.20
2017-05-18T04:02:47.780Z,41.11
2017-05-18T04:03:49.931Z,40.74
2017-05-18T04:04:51.786Z,41.22
2017-05-18T04:05:53.633Z,41.22
2017-05-18T04:06:55.496Z,39.89
2017-05-18T04:07:57.350Z,39.70
2017-05-18T04:08:59.300Z,39.41
2017-05-18T04:10:01.155Z,39.79
2017-05-18T04:11:02.986Z,40.19
2017-05-18T04:12:04.842Z,40.28
2017-05-18T04:13:06.726Z,39.91
2017-05-18T04:14:08.687Z,39.53
2017-05-18T04:15:10.537Z,38.78
2017-05-18T04:16:12.395Z,38.58
2017-05-18T04:17:14.247Z,38.41
2017-05-18T04:18:16.081Z,38.21
2017-05-18T04:19:17.929Z,37.63
2017-05-18T04:20:19.758Z,37.25
2017-05-18T04:21:21.587Z,36.69
2017-05-18T04:22:23.420Z,36.21
2017-05-18T04:23:25.274Z,36.11
2017-05-18T04:24:27.338Z,36.79
2017-05-18T04:25:29.162Z,36.59
2017-05-18T04:26:30.994Z,35.84
2017-05-18T04:27:32.847Z,36.03
2017-05-18T04:28:34.704Z,35.26
2017-05-18T04:29:36.563Z,34.10
2017-05-18T04:30:38.393Z,34.87
2017-05-18T04:31:40.248Z,35.08
2017-05-18T04:32:42.111Z,34.02
2017-05-18T04:33:43.964Z,33.84
2017-05-18T04:34:45.897Z,33.55
2017-05-18T04:35:47.748Z,32.99
2017-05-18T04:36:49.606Z,32.79
2017-05-18T04:37:51.469Z,32.99
2017-05-18T04:38:53.324Z,32.49
2017-05-18T04:39:55.180Z,32.41
2017-05-18T04:40:57.041Z,33.09
2017-05-18T04:41:58.897Z,32.42
2017-05-18T04:43:00.728Z,31.96
2017-05-18T04:44:02.557Z,31.39
2017-05-18T04:45:04.712Z,30.91
2017-05-18T04:46:06.553Z,30.34
2017-05-18T04:47:08.412Z,30.13
2017-05-18T04:48:10.267Z,30.15
2017-05-18T04:49:12.100Z,30.24
2017-05-18T04:50:13.958Z,29.85
2017-05-18T04:51:15.791Z,29.57
2017-05-18T04:52:17.651Z,29.77
2017-05-18T04:53:19.508Z,29.28
2017-05-18T04:54:21.365Z,28.80
2017-05-18T04:55:23.325Z,28.70
2017-05-18T04:56:25.175Z,29.01
2017-05-18T04:57:27.013Z,28.74
2017-05-18T04:58:28.878Z,28.44
2017-05-18T04:59:30.731Z,28.64
2017-05-18T05:00:32.692Z,27.96
2017-05-18T05:01:34.548Z,28.05
2017-05-18T05:02:36.410Z,28.05
2017-05-18T05:03:38.266Z,28.44
2017-05-18T05:04:40.096Z,28.34
2017-05-18T05:05:42.199Z,28.05
2017-05-18T05:06:44.059Z,27.97
2017-05-18T05:07:45.918Z,27.78
2017-05-18T05:08:47.772Z,27.29
2017-05-18T05:09:49.600Z,27.50
2017-05-18T05:10:51.484Z,27.40
2017-05-18T05:11:53.347Z,27.69
2017-05-18T05:12:55.177Z,27.58
2017-05-18T05:13:57.032Z,27.39
2017-05-18T05:14:58.891Z,27.47
2017-05-18T05:16:00.871Z,27.47
2017-05-18T05:17:02.725Z,27.76
2017-05-18T05:18:04.559Z,27.86
2017-05-18T05:19:06.416Z,27.68
2017-05-18T05:20:08.245Z,27.76
2017-05-18T05:21:10.305Z,27.57
2017-05-18T05:22:12.171Z,27.94
2017-05-18T05:23:14.028Z,28.33
2017-05-18T05:24:15.883Z,29.00
2017-05-18T05:25:17.738Z,29.47
2017-05-18T05:26:19.591Z,29.95
2017-05-18T05:27:21.453Z,30.05
2017-05-18T05:28:23.308Z,29.94
2017-05-18T05:29:25.162Z,30.23
2017-05-18T05:30:27.017Z,30.69
2017-05-18T05:31:29.268Z,30.89
2017-05-18T05:32:31.125Z,31.47
2017-05-18T05:33:32.961Z,31.57
2017-05-18T05:34:34.821Z,32.04
2017-05-18T05:35:36.859Z,32.23
2017-05-18T05:36:38.785Z,32.41
2017-05-18T05:37:40.641Z,32.79
2017-05-18T05:38:42.498Z,32.89
2017-05-18T05:39:44.325Z,33.65
2017-05-18T05:40:46.179Z,34.13
2017-05-18T05:41:48.236Z,34.33
2017-05-18T05:42:50.086Z,34.79
2017-05-18T05:43:51.940Z,34.99
2017-05-18T05:44:53.817Z,35.36
2017-05-18T05:45:55.640Z,35.26
2017-05-18T05:46:57.569Z,35.74
2017-05-18T05:47:59.404Z,36.42
2017-05-18T05:49:01.254Z,36.11
2017-05-18T05:50:03.103Z,36.69
2017-05-18T05:51:04.934Z,36.40
2017-05-18T05:52:07.090Z,36.69
2017-05-18T05:53:08.915Z,36.98
2017-05-18T05:54:10.750Z,37.15
2017-05-18T05:55:12.599Z,37.83
2017-05-18T05:56:14.427Z,37.73
2017-05-18T05:57:16.277Z,38.12
2017-05-18T05:58:18.106Z,38.02
2017-05-18T05:59:19.965Z,38.51
2017-05-18T06:00:21.817Z,38.51
2017-05-18T06:01:23.672Z,38.87
2017-05-18T06:02:25.800Z,39.09
2017-05-18T06:03:27.652Z,39.45
2017-05-18T06:04:29.481Z,39.57
2017-05-18T06:05:31.317Z,39.47
2017-05-18T06:06:33.165Z,39.66
2017-05-18T06:07:35.307Z,39.37
2017-05-18T06:08:37.116Z,39.47
2017-05-18T06:09:38.972Z,39.57
2017-05-18T06:10:40.798Z,39.57
2017-05-18T06:11:42.628Z,39.47
2017-05-18T06:12:44.486Z,39.47
2017-05-18T06:13:46.355Z,39.37
2017-05-18T06:14:48.214Z,39.37
2017-05-18T06:15:50.067Z,39.37
2017-05-18T06:16:51.925Z,39.18
2017-05-18T06:17:54.228Z,39.18
2017-05-18T06:18:56.059Z,39.18
2017-05-18T06:19:57.920Z,38.79
2017-05-18T06:20:59.768Z,39.18
2017-05-18T06:22:01.622Z,39.18
2017-05-18T06:23:03.674Z,39.18
2017-05-18T06:24:05.523Z,39.57
2017-05-18T06:25:07.375Z,39.57
2017-05-18T06:26:09.208Z,39.37
2017-05-18T06:27:11.063Z,39.09
2017-05-18T06:28:12.916Z,38.99
2017-05-18T06:29:14.780Z,39.47
2017-05-18T06:30:16.625Z,39.37
2017-05-18T06:31:18.477Z,38.79
2017-05-18T06:32:20.304Z,38.89
2017-05-18T06:33:22.266Z,38.99
2017-05-18T06:34:24.113Z,38.99
2017-05-18T06:35:25.969Z,39.47
2017-05-18T06:36:27.821Z,39.47
2017-05-18T06:37:29.648Z,39.37
2017-05-18T06:38:31.801Z,39.18
2017-05-18T06:39:33.656Z,38.89
2017-05-18T06:40:35.505Z,38.99
2017-05-18T06:41:37.362Z,38.79
2017-05-18T06:42:39.217Z,38.79
2017-05-18T06:43:41.070Z,38.21
2017-05-18T06:44:42.893Z,38.21
2017-05-18T06:45:44.725Z,38.99
2017-05-18T06:46:46.573Z,38.99
2017-05-18T06:47:48.431Z,39.11
2017-05-18T06:48:50.286Z,38.81
2017-05-18T06:49:52.140Z,38.81
2017-05-18T06:50:53.970Z,38.91
2017-05-18T06:51:55.823Z,38.71
2017-05-18T06:52:57.677Z,38.62
2017-05-18T06:53:59.630Z,38.43
2017-05-18T06:55:01.486Z,38.23
2017-05-18T06:56:03.341Z,38.23
2017-05-18T06:57:05.193Z,38.62
2017-05-18T06:58:07.054Z,37.95
2017-05-18T06:59:08.901Z,37.65
2017-05-18T07:00:10.752Z,37.65
2017-05-18T07:01:12.609Z,37.65
2017-05-18T07:02:14.461Z,38.04
2017-05-18T07:03:16.290Z,38.12
2017-05-18T07:04:18.415Z,37.93
2017-05-18T07:05:20.274Z,38.04
2017-05-18T07:06:22.130Z,37.65
2017-05-18T07:07:23.982Z,37.85
2017-05-18T07:08:25.837Z,38.04
2017-05-18T07:09:27.689Z,38.14
2017-05-18T07:10:29.527Z,38.14
2017-05-18T07:11:31.373Z,37.75
2017-05-18T07:12:33.198Z,37.85
2017-05-18T07:13:35.028Z,37.56
2017-05-18T07:14:36.986Z,37.75
2017-05-18T07:15:38.838Z,37.75
2017-05-18T07:16:40.693Z,37.56
2017-05-18T07:17:42.545Z,37.27
2017-05-18T07:18:44.376Z,37.27
2017-05-18T07:19:46.225Z,37.17
2017-05-18T07:20:48.089Z,37.95
2017-05-18T07:21:49.939Z,37.75
2017-05-18T07:22:51.761Z,37.56
2017-05-18T07:23:53.590Z,37.75
2017-05-18T07:24:55.720Z,37.85
2017-05-18T07:25:57.575Z,37.85
2017-05-18T07:26:59.429Z,37.65
2017-05-18T07:28:01.281Z,37.85
2017-05-18T07:29:03.106Z,37.65
2017-05-18T07:30:05.133Z,37.19
2017-05-18T07:31:06.993Z,37.00
2017-05-18T07:32:08.835Z,36.90
2017-05-18T07:33:10.666Z,36.88
2017-05-18T07:34:12.522Z,37.10
2017-05-18T07:35:14.377Z,37.00
2017-05-18T07:36:16.223Z,37.00
2017-05-18T07:37:18.051Z,37.19
2017-05-18T07:38:19.905Z,37.19
2017-05-18T07:39:21.766Z,37.00
2017-05-18T07:40:23.814Z,36.71
2017-05-18T07:41:25.669Z,37.00
2017-05-18T07:42:27.522Z,36.90
2017-05-18T07:43:29.378Z,36.80
2017-05-18T07:44:31.229Z,37.00
2017-05-18T07:45:33.086Z,36.90
2017-05-18T07:46:34.906Z,37.10
2017-05-18T07:47:36.760Z,37.19
2017-05-18T07:48:38.617Z,37.19
2017-05-18T07:49:40.443Z,37.00
2017-05-18T07:50:42.398Z,36.90
2017-05-18T07:51:44.253Z,37.00
2017-05-18T07:52:46.109Z,37.29
2017-05-18T07:53:47.974Z,37.87
2017-05-18T07:54:49.823Z,37.67
2017-05-18T07:55:51.677Z,37.38
2017-05-18T07:56:53.529Z,37.19
2017-05-18T07:57:55.360Z,37.77
2017-05-18T07:58:57.209Z,37.29
2017-05-18T07:59:59.043Z,37.10
2017-05-18T08:01:01.091Z,37.10
2017-05-18T08:02:02.951Z,37.19
2017-05-18T08:03:04.797Z,37.00
2017-05-18T08:04:06.628Z,37.19
2017-05-18T08:05:08.457Z,36.90
2017-05-18T08:06:10.307Z,36.90
2017-05-18T08:07:12.129Z,36.61
2017-05-18T08:08:13.987Z,36.61
2017-05-18T08:09:15.818Z,36.71
2017-05-18T08:10:17.669Z,36.42
2017-05-18T08:11:19.525Z,36.61
2017-05-18T08:12:21.380Z,36.32
2017-05-18T08:13:23.211Z,36.22
2017-05-18T08:14:25.062Z,36.42
2017-05-18T08:15:26.925Z,36.03
2017-05-18T08:16:29.051Z,36.03
2017-05-18T08:17:30.899Z,36.42
2017-05-18T08:18:32.724Z,35.74
2017-05-18T08:19:34.583Z,36.32
2017-05-18T08:20:36.440Z,36.22
2017-05-18T08:21:38.392Z,36.13
2017-05-18T08:22:40.223Z,36.03
2017-05-18T08:23:42.067Z,35.84
2017-05-18T08:24:43.901Z,35.94
2017-05-18T08:25:45.730Z,36.22
2017-05-18T08:26:47.878Z,35.95
2017-05-18T08:27:49.736Z,35.66
2017-05-18T08:28:51.593Z,35.64
2017-05-18T08:29:53.446Z,35.55
2017-05-18T08:30:55.302Z,35.45
2017-05-18T08:31:57.458Z,35.26
2017-05-18T08:32:59.310Z,35.57
2017-05-18T08:34:01.168Z,35.66
2017-05-18T08:35:02.986Z,35.37
2017-05-18T08:36:04.819Z,35.47
2017-05-18T08:37:06.671Z,35.57
2017-05-18T08:38:08.534Z,35.28
2017-05-18T08:39:10.386Z,35.37
2017-05-18T08:40:12.243Z,35.66
2017-05-18T08:41:14.095Z,35.57
2017-05-18T08:42:15.951Z,35.37
2017-05-18T08:43:17.808Z,35.76
2017-05-18T08:44:19.659Z,35.58
2017-05-18T08:45:21.516Z,35.68
2017-05-18T08:46:23.339Z,35.47
2017-05-18T08:47:28.393Z,35.57
2017-05-18T08:48:30.222Z,35.66
2017-05-18T08:49:32.049Z,35.66
2017-05-18T08:50:33.906Z,35.66
2017-05-18T08:51:35.753Z,35.37
2017-05-18T08:52:40.970Z,35.37
2017-05-18T08:53:42.817Z,35.66
2017-05-18T08:54:44.671Z,35.66
2017-05-18T08:55:46.502Z,35.57
2017-05-18T08:56:48.360Z,35.76
2017-05-18T08:57:50.509Z,35.66
2017-05-18T08:58:52.338Z,35.57
2017-05-18T08:59:54.187Z,35.57
2017-05-18T09:00:56.026Z,35.37
2017-05-18T09:01:57.876Z,35.49
2017-05-18T09:02:59.727Z,35.39
2017-05-18T09:04:01.555Z,35.78
2017-05-18T09:05:03.388Z,35.39
2017-05-18T09:06:05.234Z,35.29
2017-05-18T09:07:07.069Z,35.29
2017-05-18T09:08:09.118Z,35.49
2017-05-18T09:09:10.971Z,35.39
2017-05-18T09:10:12.823Z,35.29
2017-05-18T09:11:14.674Z,34.71
2017-05-18T09:12:16.524Z,35.49
2017-05-18T09:13:18.657Z,35.20
2017-05-18T09:14:20.487Z,35.68
2017-05-18T09:15:22.340Z,35.49
2017-05-18T09:16:24.169Z,35.39
2017-05-18T09:17:26.021Z,35.58
2017-05-18T09:18:27.879Z,35.29
2017-05-18T09:19:29.730Z,35.20
2017-05-18T09:20:31.559Z,35.39
2017-05-18T09:21:33.419Z,35.88
2017-05-18T09:22:35.272Z,35.49
2017-05-18T09:23:37.224Z,35.39
2017-05-18T09:24:39.058Z,35.49
2017-05-18T09:25:40.919Z,35.68
2017-05-18T09:26:42.763Z,35.39
2017-05-18T09:27:44.598Z,35.41
2017-05-18T09:28:49.601Z,35.41
2017-05-18T09:29:51.431Z,35.88
2017-05-18T09:30:53.281Z,35.60
2017-05-18T09:31:55.136Z,35.31
2017-05-18T09:32:56.967Z,35.41
2017-05-18T09:33:59.024Z,35.50
2017-05-18T09:35:00.876Z,35.60
2017-05-18T09:36:02.735Z,35.31
2017-05-18T09:37:04.595Z,35.31
2017-05-18T09:38:06.447Z,35.50
2017-05-18T09:39:08.297Z,35.60
2017-05-18T09:40:10.127Z,35.60
2017-05-18T09:41:11.980Z,35.89
2017-05-18T09:42:13.809Z,36.38
2017-05-18T09:43:15.637Z,36.28
2017-05-18T09:44:17.694Z,36.47
2017-05-18T09:45:19.523Z,36.18
2017-05-18T09:46:21.378Z,36.08
2017-05-18T09:47:23.230Z,35.99
2017-05-18T09:48:25.089Z,36.08
2017-05-18T09:49:26.943Z,35.80
2017-05-18T09:50:28.797Z,35.70
2017-05-18T09:51:30.658Z,35.50
2017-05-18T09:52:32.516Z,36.08
2017-05-18T09:53:34.367Z,35.41
2017-05-18T09:54:36.599Z,35.50
2017-05-18T09:55:38.425Z,35.52
2017-05-18T09:56:40.253Z,35.60
2017-05-18T09:57:42.111Z,35.70
2017-05-18T09:58:43.959Z,35.50
2017-05-18T09:59:45.813Z,35.41
2017-05-18T10:00:47.641Z,35.70
2017-05-18T10:01:49.496Z,36.08
2017-05-18T10:02:51.349Z,36.47
2017-05-18T10:03:53.206Z,36.38
2017-05-18T10:04:55.159Z,36.18
2017-05-18T10:05:57.008Z,36.18
2017-05-18T10:06:58.839Z,36.28
2017-05-18T10:08:00.665Z,36.20
2017-05-18T10:09:02.498Z,36.30
2017-05-18T10:10:04.554Z,36.20
2017-05-18T10:11:06.411Z,36.40
2017-05-18T10:12:08.267Z,35.91
2017-05-18T10:13:10.119Z,36.49
2017-05-18T10:14:11.950Z,36.30
2017-05-18T10:15:13.807Z,36.20
2017-05-18T10:16:15.630Z,36.20
2017-05-18T10:17:17.455Z,36.20
2017-05-18T10:18:19.322Z,36.40
2017-05-18T10:19:21.168Z,36.40
2017-05-18T10:20:23.323Z,36.40
2017-05-18T10:21:25.174Z,36.49
2017-05-18T10:22:27.036Z,35.72
2017-05-18T10:23:28.885Z,35.81
2017-05-18T10:24:30.718Z,36.40
2017-05-18T10:25:32.772Z,36.49
2017-05-18T10:26:34.627Z,35.91
2017-05-18T10:27:36.481Z,36.12
2017-05-18T10:28:38.342Z,36.68
2017-05-18T10:29:40.195Z,36.68
2017-05-18T10:30:42.448Z,36.58
2017-05-18T10:31:44.303Z,36.30
2017-05-18T10:32:46.123Z,36.49
2017-05-18T10:33:47.983Z,36.10
2017-05-18T10:34:49.840Z,35.62
2017-05-18T10:35:51.944Z,35.72
2017-05-18T10:36:53.771Z,35.52
2017-05-18T10:37:55.628Z,35.62
2017-05-18T10:38:57.481Z,35.62
2017-05-18T10:39:59.314Z,35.54
2017-05-18T10:41:01.467Z,35.73
2017-05-18T10:42:03.303Z,35.52
2017-05-18T10:43:05.153Z,35.64
2017-05-18T10:44:06.980Z,35.83
2017-05-18T10:45:08.809Z,35.54
2017-05-18T10:46:10.666Z,35.64
2017-05-18T10:47:12.523Z,35.72
2017-05-18T10:48:14.369Z,35.73
2017-05-18T10:49:16.204Z,35.73
2017-05-18T10:50:18.057Z,35.83
2017-05-18T10:51:19.983Z,36.22
2017-05-18T10:52:21.835Z,36.41
2017-05-18T10:53:23.692Z,36.00
2017-05-18T10:54:25.540Z,36.51
2017-05-18T10:55:27.405Z,36.51
2017-05-18T10:56:29.259Z,36.10
2017-05-18T10:57:31.078Z,35.83
2017-05-18T10:58:32.907Z,36.02
2017-05-18T10:59:34.737Z,35.54
2017-05-18T11:00:36.567Z,35.52
2017-05-18T11:01:38.418Z,35.54
2017-05-18T11:02:40.248Z,35.62
2017-05-18T11:03:42.110Z,35.44
2017-05-18T11:04:44.019Z,35.44
2017-05-18T11:05:45.842Z,35.54
2017-05-18T11:06:47.703Z,35.54
2017-05-18T11:07:49.555Z,35.44
2017-05-18T11:08:51.408Z,35.35
2017-05-18T11:09:53.286Z,35.44
2017-05-18T11:10:55.116Z,35.83
2017-05-18T11:11:57.168Z,35.64
2017-05-18T11:12:59.020Z,35.54
2017-05-18T11:14:00.878Z,35.73
2017-05-18T11:15:02.735Z,36.02
2017-05-18T11:16:04.590Z,36.12
2017-05-18T11:17:06.445Z,35.64
2017-05-18T11:18:08.301Z,35.64
2017-05-18T11:19:10.127Z,35.64
2017-05-18T11:20:11.975Z,35.54
2017-05-18T11:21:13.807Z,35.73
2017-05-18T11:22:15.964Z,35.56
2017-05-18T11:23:17.821Z,35.44
2017-05-18T11:24:19.681Z,35.25
2017-05-18T11:25:21.512Z,35.35
2017-05-18T11:26:23.342Z,35.44
2017-05-18T11:27:25.201Z,35.54
2017-05-18T11:28:27.060Z,35.64
2017-05-18T11:29:28.906Z,35.64
2017-05-18T11:30:30.742Z,35.35
2017-05-18T11:31:32.597Z,35.44
2017-05-18T11:32:34.647Z,35.35
2017-05-18T11:33:36.505Z,35.73
2017-05-18T11:34:38.336Z,36.12
2017-05-18T11:35:40.192Z,36.32
2017-05-18T11:36:42.048Z,36.41
2017-05-18T11:37:44.248Z,36.04
2017-05-18T11:38:46.080Z,35.56
2017-05-18T11:39:47.910Z,35.56
2017-05-18T11:40:49.739Z,35.27
2017-05-18T11:41:51.596Z,35.94
2017-05-18T11:42:53.751Z,35.66
2017-05-18T11:43:55.577Z,35.66
2017-05-18T11:44:57.412Z,35.56
2017-05-18T11:45:59.265Z,35.46
2017-05-18T11:47:01.126Z,35.56
2017-05-18T11:48:03.176Z,35.27
2017-05-18T11:49:05.437Z,35.36
2017-05-18T11:50:07.300Z,35.56
2017-05-18T11:51:09.133Z,35.66
2017-05-18T11:52:10.991Z,35.46
2017-05-18T11:53:12.872Z,35.56
2017-05-18T11:54:14.699Z,35.17
2017-05-18T11:55:16.557Z,35.17
2017-05-18T11:56:18.412Z,35.07
2017-05-18T11:57:20.271Z,35.36
2017-05-18T11:58:22.224Z,35.56
2017-05-18T11:59:24.083Z,35.56
2017-05-18T12:00:25.936Z,35.36
2017-05-18T12:01:27.791Z,35.36
2017-05-18T12:02:29.653Z,35.36
2017-05-18T12:03:31.756Z,35.46
2017-05-18T12:04:33.609Z,35.46
2017-05-18T12:05:35.467Z,35.57
2017-05-18T12:06:37.293Z,35.75
2017-05-18T12:07:39.121Z,35.85
2017-05-18T12:08:41.177Z,35.38
2017-05-18T12:09:43.030Z,35.46
2017-05-18T12:10:44.885Z,35.36
2017-05-18T12:11:46.741Z,35.09
2017-05-18T12:12:48.575Z,35.17
2017-05-18T12:13:50.627Z,35.09
2017-05-18T12:14:52.454Z,34.89
2017-05-18T12:15:54.307Z,34.51
2017-05-18T12:16:56.166Z,34.69
2017-05-18T12:17:57.996Z,34.70
2017-05-18T12:19:00.203Z,35.17
2017-05-18T12:20:02.028Z,35.19
2017-05-18T12:21:03.886Z,35.28
2017-05-18T12:22:05.737Z,35.09
2017-05-18T12:23:07.598Z,35.19
2017-05-18T12:24:09.459Z,34.80
2017-05-18T12:25:11.313Z,34.61
2017-05-18T12:26:13.173Z,34.80
2017-05-18T12:27:15.030Z,34.41
2017-05-18T12:28:16.883Z,34.70
2017-05-18T12:29:18.942Z,34.61
2017-05-18T12:30:20.793Z,34.22
2017-05-18T12:31:22.655Z,34.12
2017-05-18T12:32:24.510Z,34.02
2017-05-18T12:33:26.364Z,34.12
2017-05-18T12:34:28.214Z,33.92
2017-05-18T12:35:30.072Z,34.02
2017-05-18T12:36:31.903Z,34.02
2017-05-18T12:37:33.862Z,33.84
2017-05-18T12:38:35.721Z,33.94
2017-05-18T12:39:37.703Z,34.04
2017-05-18T12:40:39.555Z,33.84
2017-05-18T12:41:41.415Z,33.75
2017-05-18T12:42:43.249Z,33.65
2017-05-18T12:43:45.106Z,34.04
2017-05-18T12:44:47.005Z,34.04
2017-05-18T12:45:48.855Z,34.23
2017-05-18T12:46:50.692Z,34.04
2017-05-18T12:47:52.517Z,34.04
2017-05-18T12:48:54.349Z,33.75
2017-05-18T12:49:56.211Z,33.75
2017-05-18T12:50:58.063Z,33.46
2017-05-18T12:51:59.921Z,33.46
2017-05-18T12:53:01.745Z,33.17
2017-05-18T12:54:03.576Z,33.17
2017-05-18T12:55:05.534Z,33.17
2017-05-18T12:56:07.391Z,33.36
2017-05-18T12:57:09.254Z,33.36
2017-05-18T12:58:11.100Z,33.65
2017-05-18T12:59:12.960Z,33.56
2017-05-18T13:00:14.821Z,33.65
2017-05-18T13:01:16.670Z,33.94
2017-05-18T13:02:18.501Z,34.14
2017-05-18T13:03:20.558Z,34.23
2017-05-18T13:04:22.409Z,33.94
2017-05-18T13:05:24.344Z,33.75
2017-05-18T13:06:26.201Z,33.65
2017-05-18T13:07:28.032Z,34.04
2017-05-18T13:08:29.896Z,33.84
2017-05-18T13:09:31.745Z,34.04
2017-05-18T13:10:33.608Z,34.04
2017-05-18T13:11:35.461Z,34.14
2017-05-18T13:12:37.321Z,34.23
2017-05-18T13:13:39.179Z,34.23
2017-05-18T13:14:41.035Z,34.23
2017-05-18T13:15:43.087Z,33.94
2017-05-18T13:16:44.940Z,33.75